createdAt,value
2023-08-28T00:08:50.834Z,5.50
2023-08-28T00:18:50.754Z,4.40
2023-08-28T00:28:50.661Z,3.30
2023-08-28T00:38:50.568Z,2.80
2023-08-28T00:48:50.484Z,3.10
2023-08-28T00:58:50.404Z,2.50
2023-08-28T01:08:50.296Z,2.60
2023-08-28T01:18:50.217Z,2.90
2023-08-28T01:28:50.180Z,2.60
2023-08-28T01:38:50.065Z,2.80
2023-08-28T01:48:49.958Z,3.20
2023-08-28T01:58:49.884Z,2.70
2023-08-28T02:08:49.947Z,2.50
2023-08-28T02:18:49.753Z,2.90
2023-08-28T02:28:49.621Z,3.30
2023-08-28T02:38:49.549Z,3.40
2023-08-28T02:48:49.466Z,3.90
2023-08-28T02:58:49.390Z,2.80
2023-08-28T03:08:49.320Z,4.10
2023-08-28T03:18:49.243Z,3.80
2023-08-28T03:28:49.166Z,2.70
2023-08-28T03:38:49.068Z,3.70
2023-08-28T03:48:48.984Z,3.60
2023-08-28T03:58:48.916Z,4.20
2023-08-28T04:08:48.835Z,3.60
2023-08-28T04:18:48.856Z,3.80
2023-08-28T04:28:48.655Z,4.40
2023-08-28T04:38:48.603Z,4.50
2023-08-28T04:48:48.511Z,5.90
2023-08-28T04:58:48.434Z,5.70
2023-08-28T05:08:48.384Z,4.40
2023-08-28T05:18:48.247Z,5.30
2023-08-28T05:28:48.157Z,6.60
2023-08-28T05:38:48.075Z,7.20
2023-08-28T05:48:47.997Z,4.60
2023-08-28T05:58:47.913Z,5.10
2023-08-28T06:08:47.826Z,4.80
2023-08-28T06:18:47.736Z,5.90
2023-08-28T06:28:47.687Z,6.10
2023-08-28T06:38:47.571Z,5.10
2023-08-28T06:48:47.488Z,6.40
2023-08-28T06:58:47.416Z,4.60
2023-08-28T07:08:47.309Z,4.90
2023-08-28T07:18:47.246Z,5.70
2023-08-28T07:28:47.155Z,6.50
2023-08-28T07:38:47.060Z,5.20
2023-08-28T07:48:46.999Z,4.00
2023-08-28T07:58:52.955Z,5.10
2023-08-28T08:08:46.822Z,3.30
2023-08-28T08:18:46.747Z,5.50
2023-08-28T08:28:46.643Z,4.40
2023-08-28T08:38:46.568Z,3.00
2023-08-28T08:48:46.473Z,3.10
2023-08-28T08:58:46.390Z,4.10
2023-08-28T09:08:46.304Z,3.20
2023-08-28T09:18:46.239Z,2.80
2023-08-28T09:28:46.137Z,3.60
2023-08-28T09:38:46.121Z,2.70
2023-08-28T09:48:45.961Z,4.20
2023-08-28T09:58:45.924Z,3.10
2023-08-28T10:08:45.792Z,2.30
2023-08-28T10:18:45.724Z,3.50
2023-08-28T10:28:45.648Z,2.70
2023-08-28T10:38:56.677Z,2.60
2023-08-28T10:48:45.470Z,3.10
2023-08-28T10:58:45.381Z,2.80
2023-08-28T11:08:45.291Z,3.90
2023-08-28T11:18:45.221Z,3.70
2023-08-28T11:28:45.102Z,3.20
2023-08-28T11:38:45.042Z,4.40
2023-08-28T11:48:44.997Z,2.90
2023-08-28T11:58:44.950Z,3.30
2023-08-28T12:08:44.797Z,3.70
2023-08-28T12:18:44.709Z,2.80
2023-08-28T12:28:44.643Z,2.30
2023-08-28T12:38:44.552Z,3.30
2023-08-28T12:48:44.490Z,3.20
2023-08-28T12:58:44.428Z,2.40
2023-08-28T13:08:44.307Z,2.50
2023-08-28T13:18:44.220Z,3.70
2023-08-28T13:28:44.144Z,3.40
2023-08-28T13:38:44.068Z,3.70
2023-08-28T13:48:44.036Z,3.10
2023-08-28T13:58:43.897Z,3.90
2023-08-28T14:08:43.819Z,2.30
2023-08-28T14:18:43.758Z,3.00
2023-08-28T14:28:43.671Z,2.40
2023-08-28T14:38:43.588Z,2.50
2023-08-28T14:48:43.491Z,2.80
2023-08-28T14:58:43.521Z,3.10
2023-08-28T15:08:43.381Z,4.10
2023-08-28T15:18:43.228Z,2.90
2023-08-28T15:28:43.132Z,3.10
2023-08-28T15:38:43.054Z,4.20
2023-08-28T15:48:42.967Z,5.50
2023-08-28T15:58:47.176Z,3.20
2023-08-28T16:08:42.824Z,3.30
2023-08-28T16:18:42.838Z,4.40
2023-08-28T16:28:42.740Z,3.30
2023-08-28T16:38:42.587Z,3.30
2023-08-28T16:48:42.524Z,3.10
2023-08-28T16:58:42.476Z,2.70
2023-08-28T17:08:42.350Z,4.60
2023-08-28T17:18:42.235Z,3.20
2023-08-28T17:28:42.170Z,4.30
2023-08-28T17:38:42.079Z,4.90
2023-08-28T17:48:42.042Z,3.40
2023-08-28T17:58:41.898Z,4.00
2023-08-28T18:08:41.834Z,4.00
2023-08-28T18:18:41.798Z,3.80
2023-08-28T18:28:41.704Z,3.80
2023-08-28T18:38:41.579Z,5.00
2023-08-28T18:48:41.480Z,3.30
2023-08-28T18:58:41.387Z,3.90
2023-08-28T19:08:41.337Z,6.00
2023-08-28T19:18:41.289Z,5.00
2023-08-28T19:28:41.147Z,3.90
2023-08-28T19:38:41.123Z,5.90
2023-08-28T19:48:40.986Z,5.40
2023-08-28T19:58:40.954Z,5.80
2023-08-28T20:08:40.923Z,6.50
2023-08-28T20:18:40.784Z,7.00
2023-08-28T20:28:40.651Z,6.50
2023-08-28T20:38:40.571Z,6.50
2023-08-28T20:48:40.529Z,6.00
2023-08-28T20:58:40.385Z,5.90
2023-08-28T21:08:40.300Z,6.70
2023-08-28T21:18:40.212Z,6.00
2023-08-28T21:28:40.159Z,7.50
2023-08-28T21:38:40.048Z,7.30
2023-08-28T21:48:39.963Z,6.50
2023-08-28T21:58:39.876Z,7.60
2023-08-28T22:08:39.799Z,8.30
2023-08-28T22:18:39.749Z,6.50
2023-08-28T22:28:39.619Z,7.40
2023-08-28T22:38:39.534Z,6.90
2023-08-28T22:48:39.471Z,7.60
2023-08-28T22:58:39.436Z,6.40
2023-08-28T23:08:39.281Z,6.60
2023-08-28T23:18:39.224Z,8.10
2023-08-28T23:28:39.639Z,7.50
2023-08-28T23:38:39.048Z,6.90
2023-08-28T23:48:39.004Z,6.20
2023-08-28T23:58:38.869Z,6.80
